Time,TemperatureF,DewpointF,PressureIn,WindDirection,WindDirectionDegrees,WindSpeedMPH,WindSpeedGustMPH,Humidity,HourlyPrecipIn,Conditions,Clouds,dailyrainin,SoftwareType,DateUTC
2013-06-17 00:04:00,77.2,26.0,25.34,WSW,245,5.4,8.7,15,0.00,,---,0.00,VWS V14.00,2013-06-17 07:04:00,
2013-06-17 00:09:00,77.0,25.9,25.34,WSW,252,10.5,10.5,15,0.00,,---,0.00,VWS V14.00,2013-06-17 07:09:00,
2013-06-17 00:14:00,77.0,25.9,25.34,West,281,10.1,10.1,15,0.00,,---,0.00,VWS V14.00,2013-06-17 07:14:00,
2013-06-17 00:19:00,77.4,26.1,25.34,West,259,7.6,10.1,15,0.00,,---,0.00,VWS V14.00,2013-06-17 07:19:00,
2013-06-17 00:24:00,77.7,26.4,25.34,WSW,258,8.7,11.0,15,0.00,,---,0.00,VWS V14.00,2013-06-17 07:24:00,
2013-06-17 00:29:00,78.1,26.7,25.34,WSW,257,7.6,8.1,15,0.00,,---,0.00,VWS V14.00,2013-06-17 07:29:00,
2013-06-17 00:34:00,77.4,26.1,25.34,West,264,8.1,8.7,15,0.00,,---,0.00,VWS V14.00,2013-06-17 07:34:00,
2013-06-17 00:40:00,76.8,25.7,25.34,West,281,5.8,8.7,15,0.00,,---,0.00,VWS V14.00,2013-06-17 07:40:00,
2013-06-17 00:45:00,76.5,25.4,25.34,West,278,6.3,8.7,15,0.00,,---,0.00,VWS V14.00,2013-06-17 07:45:00,
2013-06-17 00:50:00,76.1,25.1,25.34,West,277,7.6,7.6,15,0.00,,---,0.00,VWS V14.00,2013-06-17 07:50:00,
2013-06-17 00:55:00,76.1,25.1,25.34,WSW,252,5.8,7.6,15,0.00,,---,0.00,VWS V14.00,2013-06-17 07:55:00,
2013-06-17 01:00:00,75.7,24.9,25.34,West,264,6.3,6.3,15,0.00,,---,0.00,VWS V14.00,2013-06-17 08:00:00,
2013-06-17 01:05:00,75.6,24.7,25.34,West,268,8.7,8.7,15,0.00,,---,0.00,VWS V14.00,2013-06-17 08:05:00,
2013-06-17 01:10:00,75.6,24.7,25.34,West,280,7.6,7.6,15,0.00,,---,0.00,VWS V14.00,2013-06-17 08:10:00,
2013-06-17 01:15:00,75.7,24.9,25.34,West,281,8.3,8.7,15,0.00,,---,0.00,VWS V14.00,2013-06-17 08:15:00,
2013-06-17 01:20:00,75.6,24.7,25.34,West,281,8.7,8.7,15,0.00,,---,0.00,VWS V14.00,2013-06-17 08:20:00,
2013-06-17 01:26:00,75.9,25.0,25.34,West,266,8.1,8.7,15,0.00,,---,0.00,VWS V14.00,2013-06-17 08:26:00,
2013-06-17 01:31:00,76.3,25.3,25.34,WNW,286,8.1,8.1,15,0.00,,---,0.00,VWS V14.00,2013-06-17 08:31:00,
2013-06-17 01:36:00,75.7,24.9,25.34,West,271,7.6,8.3,15,0.00,,---,0.00,VWS V14.00,2013-06-17 08:36:00,
2013-06-17 01:41:00,75.2,24.4,25.34,West,280,8.1,8.1,15,0.00,,---,0.00,VWS V14.00,2013-06-17 08:41:00,
2013-06-17 01:46:00,75.0,25.8,25.34,West,274,7.6,7.6,16,0.00,,---,0.00,VWS V14.00,2013-06-17 08:46:00,
2013-06-17 01:51:00,75.0,25.8,25.34,West,276,6.3,6.3,16,0.00,,---,0.00,VWS V14.00,2013-06-17 08:51:00,
2013-06-17 01:56:00,75.0,25.8,25.34,West,280,5.4,6.3,16,0.00,,---,0.00,VWS V14.00,2013-06-17 08:56:00,
2013-06-17 02:01:00,75.0,25.8,25.34,WNW,294,5.4,8.7,16,0.00,,---,0.00,VWS V14.00,2013-06-17 09:01:00,
2013-06-17 02:06:00,75.0,25.8,25.34,WNW,286,5.8,5.8,16,0.00,,---,0.00,VWS V14.00,2013-06-17 09:06:00,
2013-06-17 02:11:00,74.8,25.7,25.34,WSW,249,7.2,7.6,16,0.00,,---,0.00,VWS V14.00,2013-06-17 09:11:00,
2013-06-17 02:16:00,75.2,24.4,25.34,West,262,8.7,10.5,15,0.00,,---,0.00,VWS V14.00,2013-06-17 09:16:00,
2013-06-17 02:22:00,75.6,24.7,25.34,WSW,255,6.3,8.3,15,0.00,,---,0.00,VWS V14.00,2013-06-17 09:22:00,
2013-06-17 02:27:00,75.6,24.7,25.34,West,277,6.3,8.3,15,0.00,,---,0.00,VWS V14.00,2013-06-17 09:27:00,
2013-06-17 02:32:00,75.0,25.8,25.34,West,262,8.7,8.7,16,0.00,,---,0.00,VWS V14.00,2013-06-17 09:32:00,
2013-06-17 02:37:00,74.7,25.5,25.34,WNW,298,6.3,7.6,16,0.00,,---,0.00,VWS V14.00,2013-06-17 09:37:00,
2013-06-17 02:42:00,74.5,25.4,25.34,West,271,6.3,8.1,16,0.00,,---,0.00,VWS V14.00,2013-06-17 09:42:00,
2013-06-17 02:47:00,74.5,25.4,25.34,West,271,5.4,5.4,16,0.00,,---,0.00,VWS V14.00,2013-06-17 09:47:00,
2013-06-17 02:52:00,74.3,25.2,25.34,West,272,7.6,8.7,16,0.00,,---,0.00,VWS V14.00,2013-06-17 09:52:00,
2013-06-17 02:57:00,75.2,24.4,25.34,WNW,298,6.3,8.3,15,0.00,,---,0.00,VWS V14.00,2013-06-17 09:57:00,
2013-06-17 03:02:00,75.6,24.7,25.34,West,277,5.4,6.3,15,0.00,,---,0.00,VWS V14.00,2013-06-17 10:02:00,
2013-06-17 03:07:00,75.2,24.4,25.34,West,281,3.1,6.3,15,0.00,,---,0.00,VWS V14.00,2013-06-17 10:07:00,
2013-06-17 03:13:00,75.0,25.8,25.34,WNW,294,4.0,4.0,16,0.00,,---,0.00,VWS V14.00,2013-06-17 10:13:00,
2013-06-17 03:18:00,74.7,25.5,25.34,NW,315,5.4,5.8,16,0.00,,---,0.00,VWS V14.00,2013-06-17 10:18:00,
2013-06-17 03:23:00,74.5,25.4,25.34,WNW,294,5.4,6.3,16,0.00,,---,0.00,VWS V14.00,2013-06-17 10:23:00,
2013-06-17 03:28:00,74.1,25.1,25.34,NW,308,7.2,7.2,16,0.00,,---,0.00,VWS V14.00,2013-06-17 10:28:00,
2013-06-17 03:33:00,73.8,24.8,25.34,West,269,5.4,5.4,16,0.00,,---,0.00,VWS V14.00,2013-06-17 10:33:00,
2013-06-17 03:38:00,73.8,24.8,25.34,West,271,4.5,5.8,16,0.00,,---,0.00,VWS V14.00,2013-06-17 10:38:00,
2013-06-17 03:43:00,73.9,25.0,25.34,WNW,293,5.8,6.3,16,0.00,,---,0.00,VWS V14.00,2013-06-17 10:43:00,
2013-06-17 03:48:00,74.1,25.1,25.34,West,276,5.4,6.3,16,0.00,,---,0.00,VWS V14.00,2013-06-17 10:48:00,
2013-06-17 03:53:00,74.3,25.2,25.34,West,266,5.8,5.8,16,0.00,,---,0.00,VWS V14.00,2013-06-17 10:53:00,
2013-06-17 03:58:00,74.1,25.1,25.34,West,272,6.3,6.3,16,0.00,,---,0.00,VWS V14.00,2013-06-17 10:58:00,
2013-06-17 04:04:00,74.3,25.2,25.34,WNW,292,3.6,5.4,16,0.00,,---,0.00,VWS V14.00,2013-06-17 11:04:00,
2013-06-17 04:09:00,74.1,25.1,25.34,WNW,283,4.0,4.9,16,0.00,,---,0.00,VWS V14.00,2013-06-17 11:09:00,
2013-06-17 04:14:00,73.6,24.7,25.34,WNW,287,4.0,4.0,16,0.00,,---,0.00,VWS V14.00,2013-06-17 11:14:00,
2013-06-17 04:19:00,73.2,24.4,25.34,WNW,288,2.7,2.7,16,0.00,,---,0.00,VWS V14.00,2013-06-17 11:19:00,
2013-06-17 04:24:00,72.7,23.9,25.34,WNW,288,4.0,4.0,16,0.00,,---,0.00,VWS V14.00,2013-06-17 11:24:00,
2013-06-17 04:29:00,71.8,23.2,25.34,WNW,297,5.4,5.4,16,0.00,,---,0.00,VWS V14.00,2013-06-17 11:29:00,
2013-06-17 04:34:00,71.1,24.1,25.34,NW,304,4.0,4.0,17,0.00,,---,0.00,VWS V14.00,2013-06-17 11:34:00,
2013-06-17 04:39:00,70.3,23.5,25.34,NW,305,3.1,3.6,17,0.00,,---,0.00,VWS V14.00,2013-06-17 11:39:00,
2013-06-17 04:44:00,69.6,22.9,25.34,NW,305,3.1,3.6,17,0.00,,---,0.00,VWS V14.00,2013-06-17 11:44:00,
2013-06-17 04:49:00,68.9,22.3,25.34,NW,305,0.0,0.0,17,0.00,,---,0.00,VWS V14.00,2013-06-17 11:49:00,
2013-06-17 04:55:00,68.4,21.9,25.34,NW,305,0.0,0.0,17,0.00,,---,0.00,VWS V14.00,2013-06-17 11:55:00,
2013-06-17 05:00:00,68.0,21.6,25.34,NNE,14,0.0,3.1,17,0.00,,---,0.00,VWS V14.00,2013-06-17 12:00:00,
2013-06-17 05:05:00,67.3,21.0,25.34,NNE,14,0.0,0.0,17,0.00,,---,0.00,VWS V14.00,2013-06-17 12:05:00,
2013-06-17 05:10:00,66.0,21.3,25.34,West,262,0.0,0.0,18,0.00,,---,0.00,VWS V14.00,2013-06-17 12:10:00,
2013-06-17 05:15:00,65.1,20.6,25.34,West,262,0.0,0.0,18,0.00,,---,0.00,VWS V14.00,2013-06-17 12:15:00,
2013-06-17 05:20:00,64.4,20.0,25.34,West,262,4.0,4.0,18,0.00,,---,0.00,VWS V14.00,2013-06-17 12:20:00,
2013-06-17 05:25:00,64.4,20.0,25.34,West,262,3.6,4.0,18,0.00,,---,0.00,VWS V14.00,2013-06-17 12:25:00,
2013-06-17 05:30:00,64.8,20.3,25.34,West,262,0.0,0.0,18,0.00,,---,0.00,VWS V14.00,2013-06-17 12:30:00,
2013-06-17 05:35:00,65.7,21.0,25.34,West,262,0.0,0.0,18,0.00,,---,0.00,VWS V14.00,2013-06-17 12:35:00,
2013-06-17 05:40:00,66.2,20.1,25.34,West,262,0.0,0.0,17,0.00,,---,0.00,VWS V14.00,2013-06-17 12:40:00,
2013-06-17 05:46:00,66.9,20.7,25.37,West,262,0.0,0.0,17,0.00,,---,0.00,VWS V14.00,2013-06-17 12:46:00,
2013-06-17 05:51:00,67.1,20.9,25.37,West,262,0.0,0.0,17,0.00,,---,0.00,VWS V14.00,2013-06-17 12:51:00,
2013-06-17 05:56:00,67.6,21.3,25.37,West,262,0.0,0.0,17,0.00,,---,0.00,VWS V14.00,2013-06-17 12:56:00,
2013-06-17 06:01:00,68.4,21.9,25.37,West,262,0.0,0.0,17,0.00,,---,0.00,VWS V14.00,2013-06-17 13:01:00,
2013-06-17 06:06:00,69.4,22.8,25.37,West,262,0.0,0.0,17,0.00,,---,0.00,VWS V14.00,2013-06-17 13:06:00,
2013-06-17 06:11:00,70.5,23.6,25.37,West,262,0.0,0.0,17,0.00,,---,0.00,VWS V14.00,2013-06-17 13:11:00,
2013-06-17 06:16:00,71.6,23.1,25.37,West,262,0.0,0.0,16,0.00,,---,0.00,VWS V14.00,2013-06-17 13:16:00,
2013-06-17 06:21:00,72.7,23.9,25.37,West,262,0.0,0.0,16,0.00,,---,0.00,VWS V14.00,2013-06-17 13:21:00,
2013-06-17 06:26:00,73.8,24.8,25.37,West,262,0.0,0.0,16,0.00,,---,0.00,VWS V14.00,2013-06-17 13:26:00,
2013-06-17 06:31:00,74.8,25.7,25.37,West,262,0.0,0.0,16,0.00,,---,0.00,VWS V14.00,2013-06-17 13:31:00,
2013-06-17 06:37:00,75.9,25.0,25.37,West,262,0.0,0.0,15,0.00,,---,0.00,VWS V14.00,2013-06-17 13:37:00,
2013-06-17 06:42:00,77.0,25.9,25.37,West,262,0.0,0.0,15,0.00,,---,0.00,VWS V14.00,2013-06-17 13:42:00,
2013-06-17 06:47:00,77.5,26.3,25.37,West,262,2.7,2.7,15,0.00,,---,0.00,VWS V14.00,2013-06-17 13:47:00,
2013-06-17 06:52:00,78.1,26.7,25.37,NNE,16,0.0,0.0,15,0.00,,---,0.00,VWS V14.00,2013-06-17 13:52:00,
2013-06-17 06:57:00,78.4,27.0,25.37,NNE,25,3.1,3.1,15,0.00,,---,0.00,VWS V14.00,2013-06-17 13:57:00,
2013-06-17 07:02:00,78.6,27.1,25.37,NE,41,0.0,0.0,15,0.00,,---,0.00,VWS V14.00,2013-06-17 14:02:00,
2013-06-17 07:07:00,78.8,27.3,25.37,NE,44,3.6,3.6,15,0.00,,---,0.00,VWS V14.00,2013-06-17 14:07:00,
2013-06-17 07:12:00,78.8,27.3,25.37,ENE,66,0.0,3.6,15,0.00,,---,0.00,VWS V14.00,2013-06-17 14:12:00,
2013-06-17 07:17:00,79.0,27.4,25.37,NE,51,0.0,2.7,15,0.00,,---,0.00,VWS V14.00,2013-06-17 14:17:00,
2013-06-17 07:22:00,79.5,27.9,25.37,NE,44,0.0,0.0,15,0.00,,---,0.00,VWS V14.00,2013-06-17 14:22:00,
2013-06-17 07:28:00,79.9,28.1,25.37,SE,129,0.0,0.0,15,0.00,,---,0.00,VWS V14.00,2013-06-17 14:28:00,
2013-06-17 07:33:00,80.2,28.4,25.37,SE,142,0.0,3.6,15,0.00,,---,0.00,VWS V14.00,2013-06-17 14:33:00,
2013-06-17 07:38:00,80.1,28.3,25.37,SE,142,0.0,0.0,15,0.00,,---,0.00,VWS V14.00,2013-06-17 14:38:00,
2013-06-17 07:43:00,80.4,28.6,25.37,ESE,118,0.0,0.0,15,0.00,,---,0.00,VWS V14.00,2013-06-17 14:43:00,
2013-06-17 07:48:00,81.0,27.3,25.37,ENE,65,0.0,0.0,14,0.00,,---,0.00,VWS V14.00,2013-06-17 14:48:00,
2013-06-17 07:53:00,81.5,27.8,25.37,ENE,74,0.0,0.0,14,0.00,,---,0.00,VWS V14.00,2013-06-17 14:53:00,
2013-06-17 07:58:00,82.4,28.5,25.37,NNE,20,0.0,0.0,14,0.00,,---,0.00,VWS V14.00,2013-06-17 14:58:00,
2013-06-17 08:03:00,83.1,29.0,25.37,NNE,16,0.0,0.0,14,0.00,,---,0.00,VWS V14.00,2013-06-17 15:03:00,
2013-06-17 08:08:00,84.0,29.8,25.37,NNE,24,0.0,0.0,14,0.00,,---,0.00,VWS V14.00,2013-06-17 15:08:00,
2013-06-17 08:13:00,84.6,28.4,25.37,NNE,24,0.0,0.0,13,0.00,,---,0.00,VWS V14.00,2013-06-17 15:13:00,
2013-06-17 08:19:00,85.1,28.8,25.37,NW,323,5.4,6.7,13,0.00,,---,0.00,VWS V14.00,2013-06-17 15:19:00,
2013-06-17 08:24:00,85.5,29.1,25.37,NNW,329,6.3,8.1,13,0.00,,---,0.00,VWS V14.00,2013-06-17 15:24:00,
2013-06-17 08:29:00,85.1,28.8,25.37,NW,321,0.0,2.2,13,0.00,,---,0.00,VWS V14.00,2013-06-17 15:29:00,
2013-06-17 08:34:00,85.3,28.9,25.37,North,0,0.0,0.0,13,0.00,,---,0.00,VWS V14.00,2013-06-17 15:34:00,
2013-06-17 08:39:00,86.0,29.5,25.37,NE,34,0.0,0.0,13,0.00,,---,0.00,VWS V14.00,2013-06-17 15:39:00,
2013-06-17 08:44:00,86.5,29.9,25.37,NE,44,5.8,8.7,13,0.00,,---,0.00,VWS V14.00,2013-06-17 15:44:00,
2013-06-17 08:49:00,87.1,30.3,25.37,NNW,338,2.7,6.3,13,0.00,,---,0.00,VWS V14.00,2013-06-17 15:49:00,
2013-06-17 08:54:00,87.1,30.3,25.37,NNE,19,6.3,8.1,13,0.00,,---,0.00,VWS V14.00,2013-06-17 15:54:00,
2013-06-17 08:59:00,88.0,31.0,25.37,NNW,339,6.3,6.3,13,0.00,,---,0.00,VWS V14.00,2013-06-17 15:59:00,
2013-06-17 09:04:00,88.2,31.2,25.37,NNW,342,0.0,0.0,13,0.00,,---,0.00,VWS V14.00,2013-06-17 16:04:00,
2013-06-17 09:10:00,88.5,31.5,25.37,NNW,343,5.4,6.7,13,0.00,,---,0.00,VWS V14.00,2013-06-17 16:10:00,
2013-06-17 09:15:00,88.7,31.6,25.37,North,8,0.0,5.4,13,0.00,,---,0.00,VWS V14.00,2013-06-17 16:15:00,
2013-06-17 09:20:00,88.7,31.6,25.37,North,357,2.7,5.8,13,0.00,,---,0.00,VWS V14.00,2013-06-17 16:20:00,
2013-06-17 09:25:00,88.7,31.6,25.37,NNE,33,3.6,3.6,13,0.00,,---,0.00,VWS V14.00,2013-06-17 16:25:00,
2013-06-17 09:30:00,88.5,31.5,25.37,North,10,3.1,3.1,13,0.00,,---,0.00,VWS V14.00,2013-06-17 16:30:00,
2013-06-17 09:35:00,88.7,31.6,25.37,ENE,68,4.0,4.0,13,0.00,,---,0.00,VWS V14.00,2013-06-17 16:35:00,
2013-06-17 09:40:00,88.9,31.7,25.37,ENE,62,2.7,4.9,13,0.00,,---,0.00,VWS V14.00,2013-06-17 16:40:00,
2013-06-17 09:45:00,89.4,32.2,25.37,NE,35,0.0,3.6,13,0.00,,---,0.00,VWS V14.00,2013-06-17 16:45:00,
2013-06-17 09:50:00,90.1,30.7,25.37,NNE,28,5.8,5.8,12,0.00,,---,0.00,VWS V14.00,2013-06-17 16:50:00,
2013-06-17 09:56:00,90.5,31.0,25.37,NE,49,3.6,5.4,12,0.00,,---,0.00,VWS V14.00,2013-06-17 16:56:00,
2013-06-17 10:01:00,90.1,30.7,25.37,NNE,22,3.6,6.3,12,0.00,,---,0.00,VWS V14.00,2013-06-17 17:01:00,
2013-06-17 10:06:00,90.3,30.9,25.37,ESE,108,6.3,8.1,12,0.00,,---,0.00,VWS V14.00,2013-06-17 17:06:00,
2013-06-17 10:11:00,90.1,30.7,25.37,NNE,31,0.0,0.0,12,0.00,,---,0.00,VWS V14.00,2013-06-17 17:11:00,
2013-06-17 10:16:00,90.5,31.0,25.37,NNW,342,0.0,0.0,12,0.00,,---,0.00,VWS V14.00,2013-06-17 17:16:00,
2013-06-17 10:21:00,90.5,31.0,25.37,North,4,2.7,5.8,12,0.00,,---,0.00,VWS V14.00,2013-06-17 17:21:00,
2013-06-17 10:26:00,91.0,31.4,25.37,NNW,339,5.8,5.8,12,0.00,,---,0.00,VWS V14.00,2013-06-17 17:26:00,
2013-06-17 10:31:00,91.4,31.7,25.37,North,3,3.6,6.3,12,0.00,,---,0.00,VWS V14.00,2013-06-17 17:31:00,
2013-06-17 10:36:00,91.6,31.9,25.37,SE,132,5.4,8.1,12,0.00,,---,0.00,VWS V14.00,2013-06-17 17:36:00,
2013-06-17 10:41:00,91.6,31.9,25.37,NNE,22,5.4,7.6,12,0.00,,---,0.00,VWS V14.00,2013-06-17 17:41:00,
2013-06-17 10:47:00,91.8,32.0,25.37,NE,44,3.6,5.8,12,0.00,,---,0.00,VWS V14.00,2013-06-17 17:47:00,
2013-06-17 10:52:00,92.1,32.3,25.37,NNW,340,0.0,0.0,12,0.00,,---,0.00,VWS V14.00,2013-06-17 17:52:00,
2013-06-17 10:57:00,92.5,32.5,25.37,NNE,27,2.2,2.2,12,0.00,,---,0.00,VWS V14.00,2013-06-17 17:57:00,
2013-06-17 11:02:00,92.5,32.5,25.37,ESE,119,8.1,8.1,12,0.00,,---,0.00,VWS V14.00,2013-06-17 18:02:00,
2013-06-17 11:07:00,92.3,32.4,25.37,East,95,0.0,0.0,12,0.00,,---,0.00,VWS V14.00,2013-06-17 18:07:00,
2013-06-17 11:12:00,92.8,32.8,25.37,ENE,67,0.0,0.0,12,0.00,,---,0.00,VWS V14.00,2013-06-17 18:12:00,
2013-06-17 11:17:00,93.0,33.0,25.37,SW,218,3.6,4.0,12,0.00,,---,0.00,VWS V14.00,2013-06-17 18:17:00,
2013-06-17 11:22:00,92.8,32.8,25.37,NNE,29,4.0,4.0,12,0.00,,---,0.00,VWS V14.00,2013-06-17 18:22:00,
2013-06-17 11:27:00,93.4,31.1,25.37,SE,144,3.1,3.1,11,0.00,,---,0.00,VWS V14.00,2013-06-17 18:27:00,
2013-06-17 11:33:00,93.7,31.4,25.37,SSW,209,5.4,5.4,11,0.00,,---,0.00,VWS V14.00,2013-06-17 18:33:00,
2013-06-17 11:38:00,94.3,31.8,25.37,SSW,197,8.7,12.8,11,0.00,,---,0.00,VWS V14.00,2013-06-17 18:38:00,
2013-06-17 11:43:00,93.9,31.5,25.37,SW,223,5.8,5.8,11,0.00,,---,0.00,VWS V14.00,2013-06-17 18:43:00,
2013-06-17 11:48:00,93.9,31.5,25.34,SSW,203,3.6,8.7,11,0.00,,---,0.00,VWS V14.00,2013-06-17 18:48:00,
2013-06-17 11:53:00,93.4,31.1,25.34,WSW,239,6.7,6.7,11,0.00,,---,0.00,VWS V14.00,2013-06-17 18:53:00,
2013-06-17 11:58:00,93.9,31.5,25.37,SSE,162,6.3,6.3,11,0.00,,---,0.00,VWS V14.00,2013-06-17 18:58:00,
2013-06-17 12:03:00,93.9,31.5,25.37,SSE,155,7.6,7.6,11,0.00,,---,0.00,VWS V14.00,2013-06-17 19:03:00,
2013-06-17 12:08:00,93.4,31.1,25.37,SW,222,9.6,9.6,11,0.00,,---,0.00,VWS V14.00,2013-06-17 19:08:00,
2013-06-17 12:13:00,93.0,33.0,25.34,WSW,245,8.3,13.2,12,0.00,,---,0.00,VWS V14.00,2013-06-17 19:13:00,
2013-06-17 12:19:00,93.0,33.0,25.34,SSW,194,9.6,9.6,12,0.00,,---,0.00,VWS V14.00,2013-06-17 19:19:00,
2013-06-17 12:24:00,93.0,33.0,25.34,SSE,158,4.0,4.5,12,0.00,,---,0.00,VWS V14.00,2013-06-17 19:24:00,
2013-06-17 12:29:00,92.8,32.8,25.34,SSW,207,6.3,8.3,12,0.00,,---,0.00,VWS V14.00,2013-06-17 19:29:00,
2013-06-17 12:35:00,93.2,31.0,25.34,West,260,8.7,9.6,11,0.00,,---,0.00,VWS V14.00,2013-06-17 19:35:00,
2013-06-17 12:41:00,93.6,31.2,25.34,WSW,242,13.2,13.2,11,0.00,,---,0.00,VWS V14.00,2013-06-17 19:41:00,
2013-06-17 12:46:00,93.6,31.2,25.34,South,174,8.1,11.4,11,0.00,,---,0.00,VWS V14.00,2013-06-17 19:46:00,
2013-06-17 12:52:00,93.9,31.5,25.34,SW,214,11.0,18.3,11,0.00,,---,0.00,VWS V14.00,2013-06-17 19:52:00,
2013-06-17 12:58:00,93.7,31.4,25.34,WSW,256,4.9,7.6,11,0.00,,---,0.00,VWS V14.00,2013-06-17 19:58:00,
2013-06-17 13:03:00,93.7,31.4,25.34,SSW,210,6.3,6.3,11,0.00,,---,0.00,VWS V14.00,2013-06-17 20:03:00,
2013-06-17 13:08:00,94.3,31.8,25.34,WSW,241,7.6,9.6,11,0.00,,---,0.00,VWS V14.00,2013-06-17 20:08:00,
2013-06-17 13:14:00,94.5,31.9,25.34,SW,220,13.2,13.2,11,0.00,,---,0.00,VWS V14.00,2013-06-17 20:14:00,
2013-06-17 13:26:00,94.6,32.0,25.34,South,191,4.9,12.8,11,0.00,,---,0.00,VWS V14.00,2013-06-17 20:26:00,
2013-06-17 13:31:00,95.2,32.5,25.34,SE,143,5.4,8.3,11,0.00,,---,0.00,VWS V14.00,2013-06-17 20:31:00,
2013-06-17 13:36:00,95.4,32.6,25.34,SSE,147,15.0,15.0,11,0.00,,---,0.00,VWS V14.00,2013-06-17 20:36:00,
2013-06-17 13:42:00,95.2,32.5,25.34,South,175,7.2,8.3,11,0.00,,---,0.00,VWS V14.00,2013-06-17 20:42:00,
2013-06-17 13:47:00,94.8,32.2,25.31,SSW,199,2.7,2.7,11,0.00,,---,0.00,VWS V14.00,2013-06-17 20:47:00,
2013-06-17 13:52:00,95.4,32.6,25.31,SW,226,5.8,7.2,11,0.00,,---,0.00,VWS V14.00,2013-06-17 20:52:00,
2013-06-17 13:57:00,95.7,32.9,25.31,SSW,203,3.1,8.3,11,0.00,,---,0.00,VWS V14.00,2013-06-17 20:57:00,
2013-06-17 14:02:00,96.3,33.3,25.31,SSW,202,4.9,8.7,11,0.00,,---,0.00,VWS V14.00,2013-06-17 21:02:00,
2013-06-17 14:08:00,96.6,33.6,25.31,SW,231,5.4,8.1,11,0.00,,---,0.00,VWS V14.00,2013-06-17 21:08:00,
2013-06-17 14:13:00,97.0,33.8,25.31,ESE,117,8.1,8.3,11,0.00,,---,0.00,VWS V14.00,2013-06-17 21:13:00,
2013-06-17 14:18:00,96.6,33.6,25.31,South,171,7.6,8.3,11,0.00,,---,0.00,VWS V14.00,2013-06-17 21:18:00,
2013-06-17 14:23:00,96.8,33.7,25.31,NNE,13,4.0,4.0,11,0.00,,---,0.00,VWS V14.00,2013-06-17 21:23:00,
2013-06-17 14:28:00,96.4,33.4,25.31,West,263,9.2,9.2,11,0.00,,---,0.00,VWS V14.00,2013-06-17 21:28:00,
2013-06-17 14:33:00,96.4,33.4,25.31,SW,227,11.9,11.9,11,0.00,,---,0.00,VWS V14.00,2013-06-17 21:33:00,
2013-06-17 14:38:00,96.6,33.6,25.31,SW,229,9.2,13.6,11,0.00,,---,0.00,VWS V14.00,2013-06-17 21:38:00,
2013-06-17 14:43:00,96.8,33.7,25.28,WSW,251,24.2,24.2,11,0.00,,---,0.00,VWS V14.00,2013-06-17 21:43:00,
2013-06-17 14:48:00,96.8,33.7,25.28,West,263,5.8,6.3,11,0.00,,---,0.00,VWS V14.00,2013-06-17 21:48:00,
2013-06-17 14:53:00,96.8,33.7,25.28,SW,232,12.3,12.3,11,0.00,,---,0.00,VWS V14.00,2013-06-17 21:53:00,
2013-06-17 14:59:00,96.8,33.7,25.28,NNW,330,6.3,8.3,11,0.00,,---,0.00,VWS V14.00,2013-06-17 21:59:00,
2013-06-17 15:04:00,96.6,33.6,25.28,West,259,12.8,15.4,11,0.00,,---,0.00,VWS V14.00,2013-06-17 22:04:00,
2013-06-17 15:09:00,96.3,33.3,25.28,West,274,6.3,6.3,11,0.00,,---,0.00,VWS V14.00,2013-06-17 22:09:00,
2013-06-17 15:14:00,96.4,33.4,25.28,NW,310,11.0,16.8,11,0.00,,---,0.00,VWS V14.00,2013-06-17 22:14:00,
2013-06-17 15:19:00,96.3,33.3,25.28,West,271,19.7,19.7,11,0.00,,---,0.00,VWS V14.00,2013-06-17 22:19:00,
2013-06-17 15:24:00,96.3,33.3,25.28,North,357,8.7,8.7,11,0.00,,---,0.00,VWS V14.00,2013-06-17 22:24:00,
2013-06-17 15:29:00,96.4,33.4,25.28,North,350,11.0,11.0,11,0.00,,---,0.00,VWS V14.00,2013-06-17 22:29:00,
2013-06-17 15:34:00,96.3,33.3,25.28,NW,325,2.7,2.7,11,0.00,,---,0.00,VWS V14.00,2013-06-17 22:34:00,
2013-06-17 15:39:00,96.4,33.4,25.28,WNW,292,8.7,8.7,11,0.00,,---,0.00,VWS V14.00,2013-06-17 22:39:00,
2013-06-17 15:45:00,96.4,33.4,25.28,WNW,288,10.1,10.1,11,0.00,,---,0.00,VWS V14.00,2013-06-17 22:45:00,
2013-06-17 15:50:00,96.4,33.4,25.28,WSW,249,10.5,10.5,11,0.00,,---,0.00,VWS V14.00,2013-06-17 22:50:00,
2013-06-17 15:55:00,96.8,33.7,25.28,West,271,12.8,13.2,11,0.00,,---,0.00,VWS V14.00,2013-06-17 22:55:00,
2013-06-17 16:00:00,96.3,33.3,25.28,WNW,301,15.4,15.4,11,0.00,,---,0.00,VWS V14.00,2013-06-17 23:00:00,
2013-06-17 16:05:00,96.1,33.2,25.28,WSW,258,11.4,11.4,11,0.00,,---,0.00,VWS V14.00,2013-06-17 23:05:00,
2013-06-17 16:10:00,95.7,32.9,25.28,WNW,293,7.6,8.7,11,0.00,,---,0.00,VWS V14.00,2013-06-17 23:10:00,
2013-06-17 16:15:00,95.7,32.9,25.28,SW,227,5.8,9.6,11,0.00,,---,0.00,VWS V14.00,2013-06-17 23:15:00,
2013-06-17 16:20:00,95.9,33.0,25.28,WNW,286,15.4,18.8,11,0.00,,---,0.00,VWS V14.00,2013-06-17 23:20:00,
2013-06-17 16:25:00,96.3,33.3,25.28,South,190,4.0,4.0,11,0.00,,---,0.00,VWS V14.00,2013-06-17 23:25:00,
2013-06-17 16:31:00,96.4,33.4,25.28,South,173,0.0,0.0,11,0.00,,---,0.00,VWS V14.00,2013-06-17 23:31:00,
2013-06-17 16:36:00,96.4,33.4,25.28,WSW,244,10.1,10.1,11,0.00,,---,0.00,VWS V14.00,2013-06-17 23:36:00,
2013-06-17 16:41:00,96.1,33.2,25.28,NNW,328,6.3,11.0,11,0.00,,---,0.00,VWS V14.00,2013-06-17 23:41:00,
2013-06-17 16:46:00,95.4,32.6,25.28,NNW,338,6.3,8.3,11,0.00,,---,0.00,VWS V14.00,2013-06-17 23:46:00,
2013-06-17 16:51:00,95.4,32.6,25.28,NW,321,11.0,15.0,11,0.00,,---,0.00,VWS V14.00,2013-06-17 23:51:00,
2013-06-17 16:56:00,95.2,32.5,25.28,NW,310,15.0,15.4,11,0.00,,---,0.00,VWS V14.00,2013-06-17 23:56:00,
2013-06-17 17:01:00,95.2,32.5,25.28,WSW,256,12.3,13.2,11,0.00,,---,0.00,VWS V14.00,2013-06-18 00:01:00,
2013-06-17 17:06:00,95.0,32.3,25.28,WSW,248,5.8,6.3,11,0.00,,---,0.00,VWS V14.00,2013-06-18 00:06:00,
2013-06-17 17:12:00,95.0,32.3,25.28,West,276,5.4,8.3,11,0.00,,---,0.00,VWS V14.00,2013-06-18 00:12:00,
2013-06-17 17:17:00,94.8,32.2,25.28,NW,318,0.0,0.0,11,0.00,,---,0.00,VWS V14.00,2013-06-18 00:17:00,
2013-06-17 17:22:00,94.6,32.0,25.28,NW,319,5.8,8.1,11,0.00,,---,0.00,VWS V14.00,2013-06-18 00:22:00,
2013-06-17 17:27:00,94.8,32.2,25.28,NW,322,0.0,0.0,11,0.00,,---,0.00,VWS V14.00,2013-06-18 00:27:00,
2013-06-17 17:32:00,95.2,32.5,25.28,NNW,327,4.0,8.3,11,0.00,,---,0.00,VWS V14.00,2013-06-18 00:32:00,
2013-06-17 17:37:00,95.2,32.5,25.28,NW,310,10.5,10.5,11,0.00,,---,0.00,VWS V14.00,2013-06-18 00:37:00,
2013-06-17 17:42:00,94.8,32.2,25.28,SW,229,7.6,7.6,11,0.00,,---,0.00,VWS V14.00,2013-06-18 00:42:00,
2013-06-17 17:47:00,94.3,31.8,25.25,West,268,3.6,4.0,11,0.00,,---,0.00,VWS V14.00,2013-06-18 00:47:00,
2013-06-17 17:52:00,94.5,31.9,25.25,WSW,253,8.3,10.5,11,0.00,,---,0.00,VWS V14.00,2013-06-18 00:52:00,
2013-06-17 17:57:00,94.3,31.8,25.25,WNW,297,6.3,6.3,11,0.00,,---,0.00,VWS V14.00,2013-06-18 00:57:00,
2013-06-17 18:03:00,93.7,31.4,25.25,NW,311,8.1,8.1,11,0.00,,---,0.00,VWS V14.00,2013-06-18 01:03:00,
2013-06-17 18:08:00,93.7,31.4,25.25,SW,233,10.1,12.3,11,0.00,,---,0.00,VWS V14.00,2013-06-18 01:08:00,
2013-06-17 18:13:00,93.4,31.1,25.25,WNW,282,7.6,7.6,11,0.00,,---,0.00,VWS V14.00,2013-06-18 01:13:00,
2013-06-17 18:18:00,93.4,31.1,25.28,WNW,301,7.6,7.6,11,0.00,,---,0.00,VWS V14.00,2013-06-18 01:18:00,
2013-06-17 18:23:00,92.8,32.8,25.28,WNW,287,10.5,10.5,12,0.00,,---,0.00,VWS V14.00,2013-06-18 01:23:00,
2013-06-17 18:28:00,92.7,32.7,25.28,NW,305,13.2,13.2,12,0.00,,---,0.00,VWS V14.00,2013-06-18 01:28:00,
2013-06-17 18:33:00,92.1,32.3,25.28,West,264,7.2,7.6,12,0.00,,---,0.00,VWS V14.00,2013-06-18 01:33:00,
2013-06-17 18:38:00,91.8,32.0,25.28,WNW,297,7.6,7.6,12,0.00,,---,0.00,VWS V14.00,2013-06-18 01:38:00,
2013-06-17 18:43:00,91.4,31.7,25.28,West,263,8.1,8.1,12,0.00,,---,0.00,VWS V14.00,2013-06-18 01:43:00,
2013-06-17 18:49:00,91.2,31.6,25.28,NW,307,10.5,11.4,12,0.00,,---,0.00,VWS V14.00,2013-06-18 01:49:00,
2013-06-17 18:54:00,90.7,31.2,25.28,NW,322,8.1,10.5,12,0.00,,---,0.00,VWS V14.00,2013-06-18 01:54:00,
2013-06-17 18:59:00,89.8,30.5,25.28,West,272,3.1,3.1,12,0.00,,---,0.00,VWS V14.00,2013-06-18 01:59:00,
2013-06-17 19:04:00,89.1,31.9,25.28,NW,304,8.7,8.7,13,0.00,,---,0.00,VWS V14.00,2013-06-18 02:04:00,
2013-06-17 19:09:00,88.5,31.5,25.28,West,279,4.0,4.9,13,0.00,,---,0.00,VWS V14.00,2013-06-18 02:09:00,
2013-06-17 19:14:00,88.0,31.0,25.28,West,276,4.0,5.4,13,0.00,,---,0.00,VWS V14.00,2013-06-18 02:14:00,
2013-06-17 19:19:00,87.1,30.3,25.28,West,261,10.5,10.5,13,0.00,,---,0.00,VWS V14.00,2013-06-18 02:19:00,
2013-06-17 19:24:00,87.1,30.3,25.28,WNW,287,7.6,11.0,13,0.00,,---,0.00,VWS V14.00,2013-06-18 02:24:00,
2013-06-17 19:29:00,86.5,29.9,25.28,WSW,251,5.4,5.4,13,0.00,,---,0.00,VWS V14.00,2013-06-18 02:29:00,
2013-06-17 19:35:00,85.8,29.4,25.28,West,259,6.7,6.7,13,0.00,,---,0.00,VWS V14.00,2013-06-18 02:35:00,
2013-06-17 19:40:00,85.5,29.1,25.28,WSW,244,6.3,7.2,13,0.00,,---,0.00,VWS V14.00,2013-06-18 02:40:00,
2013-06-17 19:45:00,85.1,28.8,25.28,WSW,257,5.8,6.3,13,0.00,,---,0.00,VWS V14.00,2013-06-18 02:45:00,
2013-06-17 19:50:00,84.7,28.5,25.28,WSW,249,5.8,6.3,13,0.00,,---,0.00,VWS V14.00,2013-06-18 02:50:00,
2013-06-17 19:55:00,83.7,29.5,25.28,WSW,256,4.9,4.9,14,0.00,,---,0.00,VWS V14.00,2013-06-18 02:55:00,
2013-06-17 20:00:00,82.0,28.2,25.28,West,261,4.0,5.8,14,0.00,,---,0.00,VWS V14.00,2013-06-18 03:00:00,
2013-06-17 20:05:00,80.8,27.2,25.28,WSW,253,4.9,5.4,14,0.00,,---,0.00,VWS V14.00,2013-06-18 03:05:00,
2013-06-17 20:10:00,79.5,27.9,25.28,West,260,6.3,6.3,15,0.00,,---,0.00,VWS V14.00,2013-06-18 03:10:00,
2013-06-17 20:15:00,79.0,27.4,25.28,WSW,257,5.8,6.3,15,0.00,,---,0.00,VWS V14.00,2013-06-18 03:15:00,
2013-06-17 20:20:00,79.0,27.4,25.28,West,259,7.6,8.3,15,0.00,,---,0.00,VWS V14.00,2013-06-18 03:20:00,
2013-06-17 20:25:00,79.7,28.0,25.28,West,265,4.0,6.3,15,0.00,,---,0.00,VWS V14.00,2013-06-18 03:25:00,
2013-06-17 20:31:00,80.4,28.6,25.28,West,269,5.4,6.3,15,0.00,,---,0.00,VWS V14.00,2013-06-18 03:31:00,
2013-06-17 20:36:00,80.6,27.0,25.28,West,266,6.3,6.3,14,0.00,,---,0.00,VWS V14.00,2013-06-18 03:36:00,
2013-06-17 20:41:00,81.0,27.3,25.28,West,261,6.3,6.3,14,0.00,,---,0.00,VWS V14.00,2013-06-18 03:41:00,
2013-06-17 20:46:00,81.0,27.3,25.28,WSW,257,8.3,8.3,14,0.00,,---,0.00,VWS V14.00,2013-06-18 03:46:00,
2013-06-17 20:51:00,81.5,27.8,25.28,West,261,6.3,7.6,14,0.00,,---,0.00,VWS V14.00,2013-06-18 03:51:00,
2013-06-17 20:56:00,82.4,28.5,25.28,West,261,8.3,8.3,14,0.00,,---,0.00,VWS V14.00,2013-06-18 03:56:00,
2013-06-17 21:01:00,82.9,28.9,25.28,West,276,8.3,8.7,14,0.00,,---,0.00,VWS V14.00,2013-06-18 04:01:00,
2013-06-17 21:02:00,82.9,28.9,25.28,West,263,8.3,10.5,14,0.00,,---,0.00,VWS V14.00,2013-06-18 04:02:00,
2013-06-17 21:03:00,82.9,28.9,25.28,West,273,8.3,8.3,14,0.00,,---,0.00,VWS V14.00,2013-06-18 04:03:00,
2013-06-17 21:06:00,82.9,28.9,25.28,WSW,251,8.7,10.5,14,0.00,,---,0.00,VWS V14.00,2013-06-18 04:06:00,
2013-06-17 21:11:00,82.6,28.6,25.28,WSW,250,8.3,8.3,14,0.00,,---,0.00,VWS V14.00,2013-06-18 04:11:00,
2013-06-17 21:17:00,82.0,28.2,25.28,WSW,256,8.3,10.5,14,0.00,,---,0.00,VWS V14.00,2013-06-18 04:17:00,
2013-06-17 21:22:00,81.7,27.9,25.28,WSW,242,7.6,8.7,14,0.00,,---,0.00,VWS V14.00,2013-06-18 04:22:00,
2013-06-17 21:27:00,81.0,27.3,25.28,WSW,257,7.6,8.3,14,0.00,,---,0.00,VWS V14.00,2013-06-18 04:27:00,
2013-06-17 21:32:00,80.6,27.0,25.31,WSW,256,8.1,8.3,14,0.00,,---,0.00,VWS V14.00,2013-06-18 04:32:00,
2013-06-17 21:37:00,80.2,28.4,25.31,WSW,245,8.7,8.7,15,0.00,,---,0.00,VWS V14.00,2013-06-18 04:37:00,
2013-06-17 21:42:00,79.9,28.1,25.31,West,262,7.2,8.3,15,0.00,,---,0.00,VWS V14.00,2013-06-18 04:42:00,
2013-06-17 21:47:00,79.5,27.9,25.31,WSW,248,5.4,7.2,15,0.00,,---,0.00,VWS V14.00,2013-06-18 04:47:00,
2013-06-17 21:52:00,79.5,27.9,25.31,WSW,250,8.3,8.7,15,0.00,,---,0.00,VWS V14.00,2013-06-18 04:52:00,
2013-06-17 21:57:00,79.3,27.7,25.31,WSW,253,8.3,8.7,15,0.00,,---,0.00,VWS V14.00,2013-06-18 04:57:00,
2013-06-17 22:02:00,79.5,27.9,25.31,WSW,248,11.0,11.0,15,0.00,,---,0.00,VWS V14.00,2013-06-18 05:02:00,
2013-06-17 22:08:00,79.7,28.0,25.31,WSW,249,8.3,8.3,15,0.00,,---,0.00,VWS V14.00,2013-06-18 05:08:00,
2013-06-17 22:13:00,80.1,28.3,25.31,West,267,6.3,8.7,15,0.00,,---,0.00,VWS V14.00,2013-06-18 05:13:00,
2013-06-17 22:18:00,80.2,28.4,25.28,West,279,8.3,8.3,15,0.00,,---,0.00,VWS V14.00,2013-06-18 05:18:00,
2013-06-17 22:23:00,80.1,28.3,25.28,WSW,256,5.8,6.3,15,0.00,,---,0.00,VWS V14.00,2013-06-18 05:23:00,
2013-06-17 22:28:00,79.5,27.9,25.31,WSW,255,6.3,6.3,15,0.00,,---,0.00,VWS V14.00,2013-06-18 05:28:00,
2013-06-17 22:33:00,79.2,27.6,25.31,West,271,6.3,6.3,15,0.00,,---,0.00,VWS V14.00,2013-06-18 05:33:00,
2013-06-17 22:38:00,79.3,27.7,25.31,WSW,257,10.1,10.1,15,0.00,,---,0.00,VWS V14.00,2013-06-18 05:38:00,
2013-06-17 22:43:00,79.9,28.1,25.28,WNW,289,10.5,10.5,15,0.00,,---,0.00,VWS V14.00,2013-06-18 05:43:00,
2013-06-17 22:48:00,80.8,27.2,25.28,WSW,257,8.1,8.1,14,0.00,,---,0.00,VWS V14.00,2013-06-18 05:48:00,
2013-06-17 22:53:00,81.1,27.5,25.28,West,270,8.3,8.3,14,0.00,,---,0.00,VWS V14.00,2013-06-18 05:53:00,
2013-06-17 22:59:00,81.3,27.6,25.28,West,260,12.3,12.8,14,0.00,,---,0.00,VWS V14.00,2013-06-18 05:59:00,
2013-06-17 23:04:00,81.3,27.6,25.28,WSW,248,8.7,11.0,14,0.00,,---,0.00,VWS V14.00,2013-06-18 06:04:00,
2013-06-17 23:09:00,81.3,27.6,25.28,WNW,294,11.0,11.4,14,0.00,,---,0.00,VWS V14.00,2013-06-18 06:09:00,
2013-06-17 23:14:00,80.6,27.0,25.28,WNW,301,6.3,8.1,14,0.00,,---,0.00,VWS V14.00,2013-06-18 06:14:00,
2013-06-17 23:19:00,79.7,28.0,25.28,WNW,288,8.1,8.3,15,0.00,,---,0.00,VWS V14.00,2013-06-18 06:19:00,
2013-06-17 23:24:00,79.0,27.4,25.28,West,279,6.3,6.3,15,0.00,,---,0.00,VWS V14.00,2013-06-18 06:24:00,
2013-06-17 23:29:00,78.4,27.0,25.28,WNW,298,4.0,6.3,15,0.00,,---,0.00,VWS V14.00,2013-06-18 06:29:00,
2013-06-17 23:34:00,77.4,26.1,25.28,West,278,6.3,8.7,15,0.00,,---,0.00,VWS V14.00,2013-06-18 06:34:00,
2013-06-17 23:39:00,77.9,26.6,25.28,WNW,287,7.6,11.0,15,0.00,,---,0.00,VWS V14.00,2013-06-18 06:39:00,
2013-06-17 23:44:00,78.8,27.3,25.28,West,275,5.8,8.1,15,0.00,,---,0.00,VWS V14.00,2013-06-18 06:44:00,
2013-06-17 23:50:00,79.0,27.4,25.28,West,280,5.8,5.8,15,0.00,,---,0.00,VWS V14.00,2013-06-18 06:50:00,
2013-06-17 23:55:00,79.0,27.4,25.28,West,277,3.6,4.0,15,0.00,,---,0.00,VWS V14.00,2013-06-18 06:55:00,